createdAt,value
2023-04-16T00:00:11.245Z,6.15
2023-04-16T00:01:14.148Z,6.15
2023-04-16T00:02:17.137Z,6.06
2023-04-16T00:03:20.225Z,5.99
2023-04-16T00:04:23.318Z,6.16
2023-04-16T00:05:26.287Z,6.14
2023-04-16T00:06:29.255Z,6.17
2023-04-16T00:07:32.021Z,6.11
2023-04-16T00:08:36.000Z,6.00
2023-04-16T00:09:38.994Z,5.80
2023-04-16T00:10:41.816Z,5.86
2023-04-16T00:11:45.682Z,5.87
2023-04-16T00:12:48.441Z,5.85
2023-04-16T00:13:51.185Z,5.88
2023-04-16T00:14:53.794Z,5.91
2023-04-16T00:15:56.367Z,5.93
2023-04-16T00:16:59.179Z,5.92
2023-04-16T00:18:02.251Z,5.97
2023-04-16T00:19:05.042Z,5.85
2023-04-16T00:20:09.254Z,5.82
2023-04-16T00:21:12.027Z,5.71
2023-04-16T00:22:14.751Z,5.75
2023-04-16T00:23:17.586Z,5.78
2023-04-16T00:24:20.288Z,5.76
2023-04-16T00:25:23.098Z,5.64
2023-04-16T00:26:26.279Z,5.60
2023-04-16T00:27:28.867Z,5.66
2023-04-16T00:28:31.769Z,5.59
2023-04-16T00:29:35.033Z,5.63
2023-04-16T00:30:38.233Z,5.49
2023-04-16T00:31:41.193Z,5.34
2023-04-16T00:32:43.921Z,5.32
2023-04-16T00:33:46.578Z,5.22
2023-04-16T00:34:49.190Z,5.18
2023-04-16T00:35:51.806Z,5.19
2023-04-16T00:36:54.722Z,5.22
2023-04-16T00:37:58.975Z,5.21
2023-04-16T00:39:01.963Z,5.38
2023-04-16T00:40:05.654Z,5.29
2023-04-16T00:41:08.348Z,5.29
2023-04-16T00:42:11.468Z,5.25
2023-04-16T00:43:23.201Z,5.31
2023-04-16T00:44:25.831Z,5.27
2023-04-16T00:45:28.400Z,5.33
2023-04-16T00:46:31.881Z,5.34
2023-04-16T00:47:34.873Z,5.32
2023-04-16T00:48:39.890Z,5.31
2023-04-16T00:49:43.152Z,5.33
2023-04-16T00:50:46.409Z,5.40
2023-04-16T00:51:49.536Z,5.62
2023-04-16T00:52:52.322Z,5.62
2023-04-16T00:53:55.023Z,5.52
2023-04-16T00:54:59.659Z,5.46
2023-04-16T00:56:07.406Z,5.43
2023-04-16T00:57:11.007Z,5.40
2023-04-16T00:58:13.669Z,5.34
2023-04-16T00:59:16.713Z,5.32
2023-04-16T01:00:21.501Z,5.29
2023-04-16T01:01:24.255Z,5.47
2023-04-16T01:02:27.390Z,5.46
2023-04-16T01:03:43.721Z,5.49
2023-04-16T01:04:46.668Z,5.32
2023-04-16T01:05:52.455Z,5.34
2023-04-16T01:06:55.255Z,5.35
2023-04-16T01:08:01.404Z,5.35
2023-04-16T01:09:05.537Z,5.32
2023-04-16T01:10:08.671Z,5.53
2023-04-16T01:11:12.304Z,5.67
2023-04-16T01:12:15.027Z,5.66
2023-04-16T01:13:17.774Z,5.63
2023-04-16T01:14:20.574Z,5.67
2023-04-16T01:15:23.259Z,5.73
2023-04-16T01:16:27.057Z,5.74
2023-04-16T01:17:29.771Z,5.78
2023-04-16T01:18:32.551Z,5.83
2023-04-16T01:19:36.669Z,5.89
2023-04-16T01:20:39.358Z,5.78
2023-04-16T01:21:42.171Z,5.90
2023-04-16T01:22:44.828Z,5.95
2023-04-16T01:23:47.527Z,6.03
2023-04-16T01:24:50.292Z,6.02
2023-04-16T01:25:53.049Z,6.09
2023-04-16T01:27:00.770Z,6.13
2023-04-16T01:28:03.627Z,6.11
2023-04-16T01:29:06.569Z,6.12
2023-04-16T01:30:09.810Z,6.20
2023-04-16T01:31:12.531Z,6.15
2023-04-16T01:32:15.700Z,6.18
2023-04-16T01:33:18.799Z,6.15
2023-04-16T01:34:21.553Z,6.18
2023-04-16T01:35:24.970Z,6.17
2023-04-16T01:36:27.878Z,6.20
2023-04-16T01:37:31.173Z,6.19
2023-04-16T01:38:34.295Z,6.29
2023-04-16T01:39:36.982Z,6.26
2023-04-16T01:40:39.885Z,6.23
2023-04-16T01:41:43.201Z,6.27
2023-04-16T01:42:46.049Z,6.32
2023-04-16T01:43:48.661Z,6.25
2023-04-16T01:44:51.432Z,6.18
2023-04-16T01:46:19.050Z,6.20
2023-04-16T01:47:21.872Z,6.19
2023-04-16T01:48:24.622Z,6.23
2023-04-16T01:49:27.494Z,6.42
2023-04-16T01:50:30.854Z,6.41
2023-04-16T01:51:33.627Z,6.32
2023-04-16T01:52:37.195Z,6.28
2023-04-16T01:53:39.896Z,6.30
2023-04-16T01:54:42.650Z,6.31
2023-04-16T01:55:45.808Z,6.43
2023-04-16T01:56:48.627Z,6.35
2023-04-16T01:57:51.324Z,6.42
2023-04-16T01:58:54.036Z,6.43
2023-04-16T01:59:57.052Z,6.45
2023-04-16T02:01:00.060Z,6.43
2023-04-16T02:02:13.167Z,6.44
2023-04-16T02:03:17.785Z,6.48
2023-04-16T02:04:20.690Z,6.48
2023-04-16T02:05:23.354Z,6.44
2023-04-16T02:06:27.541Z,6.47
2023-04-16T02:07:32.163Z,6.46
2023-04-16T02:08:35.127Z,6.48
2023-04-16T02:09:39.600Z,6.46
2023-04-16T02:10:42.626Z,6.40
2023-04-16T02:11:45.274Z,6.38
2023-04-16T02:12:48.144Z,6.33
2023-04-16T02:13:50.800Z,6.41
2023-04-16T02:14:53.564Z,6.43
2023-04-16T02:15:56.263Z,6.45
2023-04-16T02:17:00.977Z,6.42
2023-04-16T02:18:03.903Z,6.32
2023-04-16T02:19:07.185Z,6.36
2023-04-16T02:20:11.039Z,6.45
2023-04-16T02:21:14.107Z,6.42
2023-04-16T02:22:16.986Z,6.44
2023-04-16T02:23:19.647Z,6.44
2023-04-16T02:24:22.460Z,6.40
2023-04-16T02:25:25.566Z,6.43
2023-04-16T02:26:29.378Z,6.46
2023-04-16T02:27:32.203Z,6.60
2023-04-16T02:28:35.116Z,6.60
2023-04-16T02:29:37.979Z,6.59
2023-04-16T02:30:41.360Z,6.61
2023-04-16T02:31:44.651Z,6.59
2023-04-16T02:32:47.551Z,6.59
2023-04-16T02:33:50.297Z,6.61
2023-04-16T02:34:53.085Z,6.57
2023-04-16T02:35:55.701Z,6.57
2023-04-16T02:36:58.833Z,6.49
2023-04-16T02:38:02.156Z,6.56
2023-04-16T02:39:05.392Z,6.48
2023-04-16T02:40:09.025Z,6.50
2023-04-16T02:41:11.935Z,6.49
2023-04-16T02:42:14.720Z,6.51
2023-04-16T02:43:17.322Z,6.48
2023-04-16T02:44:20.000Z,6.48
2023-04-16T02:45:23.489Z,6.47
2023-04-16T02:46:26.427Z,6.44
2023-04-16T02:47:29.186Z,6.43
2023-04-16T02:48:32.151Z,6.40
2023-04-16T02:49:36.049Z,6.35
2023-04-16T02:50:38.958Z,6.36
2023-04-16T02:51:41.702Z,6.28
2023-04-16T02:52:44.980Z,6.30
2023-04-16T02:53:47.704Z,6.20
2023-04-16T02:54:50.384Z,6.13
2023-04-16T02:55:54.660Z,6.18
2023-04-16T02:56:57.325Z,6.15
2023-04-16T02:58:00.026Z,6.01
2023-04-16T02:59:02.779Z,6.02
2023-04-16T03:00:06.018Z,5.98
2023-04-16T03:01:08.849Z,5.89
2023-04-16T03:02:11.607Z,5.80
2023-04-16T03:03:14.778Z,5.80
2023-04-16T03:04:17.670Z,5.69
2023-04-16T03:05:20.378Z,5.66
2023-04-16T03:06:23.463Z,5.68
2023-04-16T03:07:26.340Z,5.59
2023-04-16T03:08:29.068Z,5.65
2023-04-16T03:09:32.071Z,5.62
2023-04-16T03:10:35.687Z,5.56
2023-04-16T03:11:38.374Z,5.53
2023-04-16T03:12:41.125Z,5.65
2023-04-16T03:13:44.081Z,5.54
2023-04-16T03:14:47.031Z,5.50
2023-04-16T03:15:50.363Z,5.48
2023-04-16T03:16:53.093Z,5.53
2023-04-16T03:17:55.921Z,5.31
2023-04-16T03:18:58.689Z,5.31
2023-04-16T03:20:01.855Z,5.16
2023-04-16T03:21:05.095Z,5.34
2023-04-16T03:22:07.944Z,5.43
2023-04-16T03:23:10.744Z,5.30
2023-04-16T03:24:13.723Z,5.19
2023-04-16T03:25:16.604Z,5.20
2023-04-16T03:26:19.172Z,5.34
2023-04-16T03:27:22.261Z,5.28
2023-04-16T03:28:24.931Z,5.15
2023-04-16T03:29:27.633Z,5.16
2023-04-16T03:30:30.230Z,5.02
2023-04-16T03:31:33.142Z,5.01
2023-04-16T03:32:36.311Z,5.07
2023-04-16T03:33:39.112Z,5.08
2023-04-16T03:34:41.736Z,5.07
2023-04-16T03:35:44.365Z,5.16
2023-04-16T03:36:47.058Z,5.01
2023-04-16T03:37:50.636Z,4.89
2023-04-16T03:38:53.573Z,4.88
2023-04-16T03:39:56.429Z,4.91
2023-04-16T03:40:59.174Z,5.01
2023-04-16T03:42:02.492Z,4.98
2023-04-16T03:43:05.153Z,5.00
2023-04-16T03:44:07.827Z,4.91
2023-04-16T03:45:10.952Z,4.89
2023-04-16T03:46:13.680Z,4.79
2023-04-16T03:47:16.540Z,4.85
2023-04-16T03:48:19.548Z,5.00
2023-04-16T03:49:22.300Z,4.92
2023-04-16T03:50:25.305Z,5.00
2023-04-16T03:51:27.990Z,4.95
2023-04-16T03:52:30.758Z,4.93
2023-04-16T03:53:33.445Z,5.06
2023-04-16T03:54:36.097Z,5.15
2023-04-16T03:55:38.824Z,5.12
2023-04-16T03:56:42.155Z,5.11
2023-04-16T03:57:45.143Z,5.07
2023-04-16T03:58:47.834Z,5.10
2023-04-16T03:59:50.683Z,5.20
2023-04-16T04:00:55.515Z,5.21
2023-04-16T04:01:58.218Z,5.19
2023-04-16T04:03:01.252Z,5.14
2023-04-16T04:04:04.373Z,5.06
2023-04-16T04:05:08.032Z,5.21
2023-04-16T04:06:10.790Z,5.22
2023-04-16T04:07:13.416Z,5.20
2023-04-16T04:08:16.229Z,5.22
2023-04-16T04:09:18.868Z,5.20
2023-04-16T04:10:21.583Z,5.23
2023-04-16T04:11:24.290Z,5.23
2023-04-16T04:12:27.405Z,5.27
2023-04-16T04:13:30.011Z,5.19
2023-04-16T04:14:32.681Z,5.22
2023-04-16T04:15:35.506Z,5.16
2023-04-16T04:16:38.153Z,5.21
2023-04-16T04:17:41.149Z,5.30
2023-04-16T04:18:44.533Z,5.27
2023-04-16T04:20:00.463Z,5.30
2023-04-16T04:21:08.195Z,5.38
2023-04-16T04:22:11.028Z,5.43
2023-04-16T04:23:13.658Z,5.39
2023-04-16T04:24:16.265Z,5.40
2023-04-16T04:25:19.012Z,5.48
2023-04-16T04:26:21.733Z,5.55
2023-04-16T04:27:24.554Z,5.45
2023-04-16T04:28:27.178Z,5.56
2023-04-16T04:29:29.951Z,5.58
2023-04-16T04:30:32.551Z,5.60
2023-04-16T04:31:35.658Z,5.68
2023-04-16T04:32:38.430Z,5.65
2023-04-16T04:33:41.390Z,5.69
2023-04-16T04:34:43.990Z,5.75
2023-04-16T04:35:46.656Z,5.88
2023-04-16T04:36:49.496Z,5.92
2023-04-16T04:37:52.816Z,5.96
2023-04-16T04:38:56.135Z,5.96
2023-04-16T04:39:58.834Z,5.97
2023-04-16T04:41:01.946Z,5.97
2023-04-16T04:42:04.843Z,6.06
2023-04-16T04:43:07.448Z,6.07
2023-04-16T04:44:09.962Z,6.09
2023-04-16T04:45:12.910Z,6.15
2023-04-16T04:46:15.919Z,6.16
2023-04-16T04:47:18.658Z,6.17
2023-04-16T04:48:26.412Z,6.20
2023-04-16T04:49:30.763Z,6.21
2023-04-16T04:50:33.476Z,6.21
2023-04-16T04:51:36.334Z,6.26
2023-04-16T04:52:39.020Z,6.23
2023-04-16T04:53:41.731Z,6.43
2023-04-16T04:54:44.336Z,6.29
2023-04-16T04:55:48.086Z,6.25
2023-04-16T04:56:54.049Z,6.23
2023-04-16T04:57:56.856Z,6.24
2023-04-16T04:58:59.542Z,6.21
2023-04-16T05:00:04.285Z,6.20
2023-04-16T05:01:07.192Z,6.17
2023-04-16T05:02:10.040Z,6.26
2023-04-16T05:03:12.974Z,6.26
2023-04-16T05:04:15.882Z,6.29
2023-04-16T05:05:18.730Z,6.29
2023-04-16T05:06:21.462Z,6.29
2023-04-16T05:07:24.189Z,6.24
2023-04-16T05:08:27.266Z,6.31
2023-04-16T05:09:29.959Z,6.37
2023-04-16T05:10:32.986Z,6.38
2023-04-16T05:11:38.896Z,6.31
2023-04-16T05:12:41.766Z,6.30
2023-04-16T05:13:44.544Z,6.37
2023-04-16T05:14:47.155Z,6.44
2023-04-16T05:15:49.805Z,6.41
2023-04-16T05:16:52.701Z,6.40
2023-04-16T05:17:56.444Z,6.35
2023-04-16T05:18:59.247Z,6.42
2023-04-16T05:20:01.910Z,6.49
2023-04-16T05:21:05.359Z,6.40
2023-04-16T05:22:08.390Z,6.36
2023-04-16T05:23:11.409Z,6.50
2023-04-16T05:24:15.099Z,6.53
2023-04-16T05:25:18.188Z,6.54
2023-04-16T05:26:20.990Z,6.48
2023-04-16T05:27:23.637Z,6.45
2023-04-16T05:28:26.292Z,6.61
2023-04-16T05:29:29.216Z,6.57
2023-04-16T05:30:32.211Z,6.52
2023-04-16T05:31:34.999Z,6.44
2023-04-16T05:32:39.449Z,6.60
2023-04-16T05:33:42.318Z,6.65
2023-04-16T05:34:44.990Z,6.63
2023-04-16T05:35:47.852Z,6.62
2023-04-16T05:36:50.896Z,6.72
2023-04-16T05:37:53.960Z,6.65
2023-04-16T05:38:57.082Z,6.60
2023-04-16T05:39:59.822Z,6.69
2023-04-16T05:41:02.497Z,6.74
2023-04-16T05:42:05.255Z,6.77
2023-04-16T05:43:07.929Z,6.71
2023-04-16T05:44:10.638Z,6.62
2023-04-16T05:45:13.325Z,6.63
2023-04-16T05:46:16.047Z,6.72
2023-04-16T05:47:18.716Z,6.83
2023-04-16T05:48:21.603Z,6.86
2023-04-16T05:49:24.437Z,6.81
2023-04-16T05:50:27.465Z,6.88
2023-04-16T05:51:30.190Z,6.96
2023-04-16T05:52:32.926Z,6.99
2023-04-16T05:53:35.726Z,6.96
2023-04-16T05:54:38.468Z,7.07
2023-04-16T05:55:41.241Z,7.04
2023-04-16T05:56:44.261Z,7.01
2023-04-16T05:57:47.292Z,7.02
2023-04-16T05:58:50.069Z,7.03
2023-04-16T05:59:53.272Z,7.02
2023-04-16T06:00:56.240Z,7.05
2023-04-16T06:01:59.495Z,7.09
2023-04-16T06:03:03.253Z,7.15
2023-04-16T06:04:06.394Z,7.18
2023-04-16T06:05:09.350Z,7.21
2023-04-16T06:06:12.310Z,7.24
2023-04-16T06:07:14.995Z,7.28
2023-04-16T06:08:17.845Z,7.33
2023-04-16T06:09:20.640Z,7.36
2023-04-16T06:10:23.617Z,7.40
2023-04-16T06:11:27.942Z,7.43
2023-04-16T06:12:31.232Z,7.49
2023-04-16T06:13:33.905Z,7.60
2023-04-16T06:14:36.571Z,7.59
2023-04-16T06:15:39.339Z,7.68
2023-04-16T06:16:42.187Z,7.60
2023-04-16T06:17:44.793Z,7.77
2023-04-16T06:18:47.894Z,7.74
2023-04-16T06:19:50.892Z,7.79
2023-04-16T06:20:53.882Z,7.78
2023-04-16T06:21:57.277Z,7.84
2023-04-16T06:23:00.010Z,7.83
2023-04-16T06:24:02.752Z,7.78
2023-04-16T06:25:05.901Z,7.77
2023-04-16T06:26:08.634Z,7.86
2023-04-16T06:27:11.216Z,7.89
2023-04-16T06:28:14.053Z,7.90
2023-04-16T06:29:16.812Z,7.99
2023-04-16T06:30:20.212Z,7.98
2023-04-16T06:31:23.393Z,8.04
2023-04-16T06:32:26.400Z,8.04
2023-04-16T06:33:28.996Z,8.08
2023-04-16T06:34:31.982Z,8.07
2023-04-16T06:35:34.719Z,8.11
2023-04-16T06:36:37.847Z,8.17
2023-04-16T06:37:40.741Z,8.25
2023-04-16T06:38:43.726Z,8.36
2023-04-16T06:39:46.426Z,8.39
2023-04-16T06:40:49.773Z,8.41
2023-04-16T06:41:52.706Z,8.57
2023-04-16T06:42:56.518Z,8.61
2023-04-16T06:43:59.365Z,8.62
2023-04-16T06:45:02.354Z,8.74
2023-04-16T06:46:05.984Z,8.80
2023-04-16T06:47:08.763Z,8.74
2023-04-16T06:48:11.560Z,8.90
2023-04-16T06:49:14.642Z,9.13
2023-04-16T06:50:17.547Z,9.22
2023-04-16T06:51:20.773Z,9.46
2023-04-16T06:52:23.584Z,9.55
2023-04-16T06:53:26.339Z,9.63
2023-04-16T06:54:28.998Z,9.65
2023-04-16T06:55:31.760Z,9.82
2023-04-16T06:56:34.444Z,9.85
2023-04-16T06:57:37.715Z,9.89
2023-04-16T06:58:40.884Z,9.91
2023-04-16T06:59:43.749Z,9.89
2023-04-16T07:00:46.429Z,9.91
2023-04-16T07:01:49.601Z,9.97
2023-04-16T07:02:52.875Z,9.93
2023-04-16T07:03:56.017Z,10.05
2023-04-16T07:04:58.773Z,10.07
2023-04-16T07:06:01.391Z,10.05
2023-04-16T07:07:04.500Z,10.22
2023-04-16T07:08:07.166Z,10.35
2023-04-16T07:09:10.336Z,10.31
2023-04-16T07:10:13.368Z,10.15
2023-04-16T07:11:16.507Z,10.22
2023-04-16T07:12:22.482Z,10.38
2023-04-16T07:13:26.182Z,10.50
2023-04-16T07:14:29.132Z,10.42
2023-04-16T07:15:31.907Z,10.40
2023-04-16T07:16:34.622Z,10.25
2023-04-16T07:17:37.364Z,10.20
2023-04-16T07:18:40.063Z,10.31
2023-04-16T07:19:42.748Z,10.28
2023-04-16T07:20:45.650Z,10.23
2023-04-16T07:21:49.162Z,10.24
2023-04-16T07:22:52.000Z,10.25
2023-04-16T07:23:55.244Z,10.17
2023-04-16T07:24:57.972Z,10.19
2023-04-16T07:26:00.963Z,10.16
2023-04-16T07:27:04.286Z,10.33
2023-04-16T07:28:07.048Z,10.53
2023-04-16T07:29:09.870Z,10.53
2023-04-16T07:30:12.985Z,10.55
2023-04-16T07:31:15.869Z,10.45
2023-04-16T07:32:18.720Z,10.68
2023-04-16T07:33:21.531Z,10.91
2023-04-16T07:34:24.415Z,10.82
2023-04-16T07:35:27.921Z,10.96
2023-04-16T07:36:31.937Z,11.08
2023-04-16T07:37:34.635Z,10.98
2023-04-16T07:38:37.176Z,11.13
2023-04-16T07:39:40.252Z,11.09
2023-04-16T07:40:43.070Z,11.10
2023-04-16T07:41:46.568Z,11.12
2023-04-16T07:42:49.483Z,11.14
2023-04-16T07:43:52.209Z,11.24
2023-04-16T07:44:55.418Z,11.31
2023-04-16T07:45:58.069Z,11.53
2023-04-16T07:47:02.290Z,11.51
2023-04-16T07:48:06.989Z,11.55
2023-04-16T07:49:09.983Z,11.43
2023-04-16T07:50:13.509Z,11.63
2023-04-16T07:51:16.661Z,11.77
2023-04-16T07:52:19.888Z,11.95
2023-04-16T07:53:22.629Z,12.00
2023-04-16T07:54:27.288Z,11.97
2023-04-16T07:55:31.252Z,12.32
2023-04-16T07:56:35.417Z,12.33
2023-04-16T07:57:38.198Z,12.30
2023-04-16T07:58:41.031Z,12.46
2023-04-16T07:59:43.720Z,12.68
2023-04-16T08:00:46.618Z,12.66
2023-04-16T08:01:50.167Z,12.51
2023-04-16T08:02:53.348Z,12.64
2023-04-16T08:03:56.570Z,12.40
2023-04-16T08:04:59.738Z,12.31
2023-04-16T08:06:02.442Z,12.25
2023-04-16T08:07:05.276Z,12.11
2023-04-16T08:08:07.905Z,11.87
2023-04-16T08:09:10.935Z,11.90
2023-04-16T08:10:13.812Z,11.81
2023-04-16T08:11:16.793Z,11.70
2023-04-16T08:12:21.143Z,11.58
2023-04-16T08:13:24.196Z,11.42
2023-04-16T08:14:26.993Z,11.54
2023-04-16T08:15:29.994Z,11.62
2023-04-16T08:16:32.700Z,11.67
2023-04-16T08:17:36.345Z,11.67
2023-04-16T08:18:39.176Z,11.57
2023-04-16T08:19:42.986Z,11.34
2023-04-16T08:20:45.948Z,11.19
2023-04-16T08:21:48.743Z,10.86
2023-04-16T08:22:53.260Z,10.96
2023-04-16T08:23:56.181Z,10.85
2023-04-16T08:24:58.959Z,11.00
2023-04-16T08:26:02.318Z,10.96
2023-04-16T08:28:14.346Z,10.96
2023-04-16T08:29:17.737Z,11.00
2023-04-16T08:30:22.034Z,11.13
2023-04-16T08:31:25.040Z,11.24
2023-04-16T08:32:28.514Z,11.34
2023-04-16T08:33:31.387Z,11.40
2023-04-16T08:34:34.008Z,11.50
2023-04-16T08:35:46.745Z,11.53
2023-04-16T08:36:49.515Z,11.66
2023-04-16T08:37:52.161Z,11.81
2023-04-16T08:38:55.014Z,11.84
2023-04-16T08:39:57.990Z,12.03
2023-04-16T08:41:04.006Z,12.07
2023-04-16T08:42:11.486Z,12.27
2023-04-16T08:43:16.687Z,12.22
2023-04-16T08:44:28.516Z,12.19
2023-04-16T08:45:35.183Z,12.37
2023-04-16T08:46:38.966Z,12.41
2023-04-16T08:47:42.124Z,12.58
2023-04-16T08:48:49.940Z,12.71
2023-04-16T08:49:58.522Z,12.66
2023-04-16T08:51:02.594Z,12.67
2023-04-16T08:52:07.388Z,12.59
2023-04-16T08:53:15.712Z,12.65
2023-04-16T08:54:30.629Z,12.41
2023-04-16T08:55:38.887Z,12.29
2023-04-16T08:56:43.223Z,12.34
2023-04-16T08:57:53.976Z,12.38
2023-04-16T08:58:58.602Z,12.44
2023-04-16T09:00:01.605Z,12.55
2023-04-16T09:01:05.228Z,12.51
2023-04-16T09:02:12.638Z,12.67
2023-04-16T09:03:15.995Z,12.44
2023-04-16T09:04:21.589Z,12.50
2023-04-16T09:05:26.708Z,12.52
2023-04-16T09:06:31.640Z,12.62
2023-04-16T09:07:35.090Z,12.68
2023-04-16T09:08:38.332Z,12.65
2023-04-16T09:09:42.357Z,12.68
2023-04-16T09:10:45.455Z,12.65
2023-04-16T09:11:51.558Z,12.65
2023-04-16T09:12:57.911Z,12.72
2023-04-16T09:14:01.199Z,12.83
2023-04-16T09:15:06.703Z,12.98
2023-04-16T09:16:13.213Z,12.82
2023-04-16T09:17:17.019Z,12.83
2023-04-16T09:18:21.481Z,12.91
2023-04-16T09:19:24.433Z,12.87
2023-04-16T09:20:27.103Z,12.96
2023-04-16T09:21:30.150Z,13.13
2023-04-16T09:22:32.744Z,13.02
2023-04-16T09:23:35.903Z,12.99
2023-04-16T09:24:38.941Z,13.00
2023-04-16T09:25:41.572Z,12.95
2023-04-16T09:26:44.354Z,12.85
2023-04-16T09:27:50.628Z,13.00
2023-04-16T09:28:53.472Z,13.10
2023-04-16T09:29:56.410Z,13.05
2023-04-16T09:31:16.322Z,13.08
2023-04-16T09:32:25.901Z,13.14
2023-04-16T09:33:29.609Z,13.11
2023-04-16T09:34:53.905Z,13.08
2023-04-16T09:35:56.638Z,13.15
2023-04-16T09:37:18.417Z,13.18
2023-04-16T09:38:21.773Z,12.95
2023-04-16T09:39:24.815Z,13.10
2023-04-16T09:40:30.695Z,13.08
2023-04-16T09:41:39.813Z,13.24
2023-04-16T09:42:42.438Z,13.30
2023-04-16T09:43:58.214Z,13.31
2023-04-16T09:45:02.789Z,13.35
2023-04-16T09:46:13.260Z,13.28
2023-04-16T09:47:17.917Z,13.38
2023-04-16T09:48:30.114Z,13.38
2023-04-16T09:49:43.472Z,13.30
2023-04-16T09:50:52.357Z,13.17
2023-04-16T09:51:56.327Z,13.17
2023-04-16T09:53:03.053Z,13.27
2023-04-16T09:54:06.988Z,13.36
2023-04-16T09:55:09.700Z,13.38
2023-04-16T09:56:13.862Z,13.29
2023-04-16T09:57:22.148Z,13.30
2023-04-16T09:58:25.884Z,13.13
2023-04-16T09:59:31.678Z,13.04
2023-04-16T10:00:34.553Z,13.05
2023-04-16T10:01:37.989Z,13.19
2023-04-16T10:02:42.684Z,13.30
2023-04-16T10:03:51.179Z,13.16
2023-04-16T10:04:54.470Z,13.10
2023-04-16T10:06:01.026Z,13.22
2023-04-16T10:07:05.622Z,13.28
2023-04-16T10:08:17.417Z,13.36
2023-04-16T10:09:20.075Z,13.33
2023-04-16T10:10:23.541Z,13.26
2023-04-16T10:11:26.535Z,13.22
2023-04-16T10:12:30.847Z,13.22
2023-04-16T10:13:33.634Z,13.43
2023-04-16T10:14:36.644Z,13.37
2023-04-16T10:15:39.961Z,13.60
2023-04-16T10:16:44.222Z,13.81
2023-04-16T10:17:47.900Z,13.94
2023-04-16T10:18:50.829Z,13.98
2023-04-16T10:19:55.693Z,14.02
2023-04-16T10:20:59.020Z,14.10
2023-04-16T10:22:02.504Z,14.11
2023-04-16T10:23:06.244Z,14.24
2023-04-16T10:24:09.776Z,13.99
2023-04-16T10:25:13.294Z,13.84
2023-04-16T10:26:18.674Z,13.89
2023-04-16T10:27:21.765Z,14.01
2023-04-16T10:28:25.300Z,14.08
2023-04-16T10:29:30.040Z,14.13
2023-04-16T10:30:35.485Z,14.20
2023-04-16T10:31:39.829Z,14.26
2023-04-16T10:32:43.036Z,14.26
2023-04-16T10:33:46.004Z,14.26
2023-04-16T10:34:48.741Z,14.50
2023-04-16T10:36:08.086Z,14.55
2023-04-16T10:37:10.834Z,14.54
2023-04-16T10:38:27.446Z,14.70
2023-04-16T10:39:30.460Z,14.75
2023-04-16T10:40:33.754Z,14.78
2023-04-16T10:41:37.523Z,14.91
2023-04-16T10:42:40.228Z,14.76
2023-04-16T10:43:48.147Z,14.79
2023-04-16T10:44:50.919Z,14.91
2023-04-16T10:45:54.258Z,15.06
2023-04-16T10:46:57.197Z,15.07
2023-04-16T10:47:59.995Z,14.96
2023-04-16T10:49:13.090Z,15.07
2023-04-16T10:50:17.123Z,15.20
2023-04-16T10:51:36.573Z,15.39
2023-04-16T10:52:40.773Z,15.41
2023-04-16T10:53:43.491Z,15.02
2023-04-16T10:54:48.516Z,15.16
2023-04-16T10:56:13.046Z,15.32
2023-04-16T10:57:18.024Z,15.51
2023-04-16T10:58:31.221Z,15.79
2023-04-16T10:59:36.124Z,15.94
2023-04-16T11:00:53.846Z,16.14
2023-04-16T11:01:59.672Z,16.68
2023-04-16T11:03:04.893Z,17.07
2023-04-16T11:04:20.238Z,17.13
2023-04-16T11:05:24.568Z,17.36
2023-04-16T11:06:28.901Z,17.53
2023-04-16T11:07:34.459Z,17.74
2023-04-16T11:08:53.345Z,17.86
2023-04-16T11:10:07.396Z,17.37
2023-04-16T11:11:10.464Z,17.54
2023-04-16T11:12:27.959Z,17.62
2023-04-16T11:13:31.788Z,17.81
2023-04-16T11:14:34.503Z,18.17
2023-04-16T11:15:37.192Z,18.24
2023-04-16T11:16:41.628Z,18.08
2023-04-16T11:17:49.154Z,18.12
2023-04-16T11:18:52.444Z,17.99
2023-04-16T11:19:56.111Z,18.37
2023-04-16T11:20:59.265Z,18.89
2023-04-16T11:22:02.774Z,19.38
2023-04-16T11:23:13.344Z,19.06
2023-04-16T11:24:16.386Z,18.92
2023-04-16T11:25:23.437Z,18.35
2023-04-16T11:26:29.639Z,18.07
2023-04-16T11:27:32.453Z,18.29
2023-04-16T11:28:36.133Z,18.20
2023-04-16T11:29:38.966Z,17.99
2023-04-16T11:30:41.920Z,17.99
2023-04-16T11:31:54.316Z,18.00
2023-04-16T11:32:57.330Z,17.76
2023-04-16T11:34:01.206Z,17.47
2023-04-16T11:35:17.310Z,16.99
2023-04-16T11:36:20.358Z,16.94
2023-04-16T11:37:38.444Z,17.08
2023-04-16T11:38:41.890Z,17.23
2023-04-16T11:39:52.800Z,16.79
2023-04-16T11:40:55.638Z,16.80
2023-04-16T11:41:58.455Z,16.54
2023-04-16T11:43:27.248Z,16.78
2023-04-16T11:44:30.558Z,16.89
2023-04-16T11:45:33.215Z,16.91
2023-04-16T11:46:40.846Z,16.97
2023-04-16T11:47:50.665Z,16.76
2023-04-16T11:48:55.664Z,16.42
2023-04-16T11:49:59.153Z,16.42
2023-04-16T11:51:02.221Z,16.38
2023-04-16T11:52:05.098Z,16.25
2023-04-16T11:53:08.003Z,16.19
2023-04-16T11:54:18.797Z,16.59
2023-04-16T11:55:22.481Z,16.88
2023-04-16T11:56:30.259Z,16.92
2023-04-16T11:57:33.161Z,17.04
2023-04-16T11:58:36.042Z,17.15
2023-04-16T12:00:02.208Z,17.19
2023-04-16T12:01:06.173Z,17.27
2023-04-16T12:02:09.029Z,17.11
2023-04-16T12:03:12.232Z,17.27
2023-04-16T12:04:16.801Z,17.60
2023-04-16T12:05:39.081Z,17.58
2023-04-16T12:07:02.309Z,17.55
2023-04-16T12:08:07.893Z,17.59
2023-04-16T12:09:27.482Z,17.58
2023-04-16T12:10:35.351Z,17.46
2023-04-16T12:11:41.717Z,17.62
2023-04-16T12:12:44.270Z,17.72
2023-04-16T12:14:12.381Z,17.77
2023-04-16T12:15:15.015Z,17.37
2023-04-16T12:16:21.229Z,17.51
2023-04-16T12:17:24.455Z,17.55
2023-04-16T12:18:27.428Z,17.15
2023-04-16T12:19:29.977Z,17.38
2023-04-16T12:20:43.485Z,17.43
2023-04-16T12:21:48.120Z,17.49
2023-04-16T12:22:55.570Z,17.66
2023-04-16T12:23:58.214Z,17.69
2023-04-16T12:25:11.346Z,17.82
2023-04-16T12:26:14.516Z,17.65
2023-04-16T12:27:17.210Z,17.55
2023-04-16T12:28:34.125Z,17.55
2023-04-16T12:29:38.892Z,17.20
2023-04-16T12:30:51.548Z,16.98
2023-04-16T12:31:54.477Z,17.18
2023-04-16T12:33:17.383Z,17.43
2023-04-16T12:34:21.635Z,17.25
2023-04-16T12:35:34.469Z,17.05
2023-04-16T12:36:38.233Z,17.05
2023-04-16T12:37:41.829Z,16.96
2023-04-16T12:38:44.672Z,17.01
2023-04-16T12:39:48.107Z,17.15
2023-04-16T12:40:50.896Z,17.00
2023-04-16T12:41:53.824Z,16.94
2023-04-16T12:42:56.440Z,16.96
2023-04-16T12:44:12.199Z,17.10
2023-04-16T12:45:15.021Z,17.04
2023-04-16T12:46:18.107Z,17.12
2023-04-16T12:47:20.990Z,16.96
2023-04-16T12:48:24.121Z,16.95
2023-04-16T12:49:26.812Z,17.01
2023-04-16T12:50:29.902Z,17.20
2023-04-16T12:51:33.741Z,17.34
2023-04-16T12:52:36.737Z,17.14
2023-04-16T12:53:39.620Z,17.00
2023-04-16T12:54:42.315Z,16.81
2023-04-16T12:55:45.831Z,17.02
2023-04-16T12:56:48.812Z,17.29
2023-04-16T12:57:55.150Z,17.36
2023-04-16T12:58:58.336Z,17.28
2023-04-16T13:00:01.528Z,17.38
2023-04-16T13:01:04.246Z,17.55
2023-04-16T13:02:07.529Z,17.71
2023-04-16T13:03:10.930Z,18.09
2023-04-16T13:04:13.986Z,18.02
2023-04-16T13:05:19.490Z,17.85
2023-04-16T13:06:22.299Z,17.80
2023-04-16T13:07:26.855Z,17.88
2023-04-16T13:08:29.925Z,17.95
2023-04-16T13:09:32.906Z,18.13
2023-04-16T13:10:36.198Z,17.98
2023-04-16T13:11:39.432Z,17.70
2023-04-16T13:12:42.624Z,18.08
2023-04-16T13:13:45.631Z,17.94
2023-04-16T13:14:48.381Z,17.77
2023-04-16T13:15:51.136Z,17.95
2023-04-16T13:16:53.989Z,18.01
2023-04-16T13:17:56.866Z,17.88
2023-04-16T13:18:59.701Z,17.96
2023-04-16T13:20:06.287Z,17.81
2023-04-16T13:21:09.067Z,17.70
2023-04-16T13:22:12.147Z,17.69
2023-04-16T13:23:15.056Z,17.81
2023-04-16T13:24:17.874Z,17.79
2023-04-16T13:25:20.725Z,17.95
2023-04-16T13:26:23.929Z,17.90
2023-04-16T13:27:27.136Z,17.77
2023-04-16T13:28:30.010Z,17.90
2023-04-16T13:29:32.947Z,17.70
2023-04-16T13:30:36.166Z,17.70
2023-04-16T13:31:39.153Z,17.38
2023-04-16T13:32:41.914Z,17.43
2023-04-16T13:33:45.003Z,17.36
2023-04-16T13:34:48.179Z,17.36
2023-04-16T13:35:51.109Z,17.05
2023-04-16T13:36:53.735Z,17.28
2023-04-16T13:37:56.734Z,17.12
2023-04-16T13:38:59.881Z,17.08
2023-04-16T13:40:02.761Z,17.18
2023-04-16T13:41:06.595Z,16.99
2023-04-16T13:42:09.554Z,16.80
2023-04-16T13:43:13.990Z,17.01
2023-04-16T13:44:16.939Z,16.87
2023-04-16T13:45:21.037Z,16.98
2023-04-16T13:46:24.063Z,16.56
2023-04-16T13:47:27.398Z,16.49
2023-04-16T13:48:30.270Z,16.49
2023-04-16T13:49:35.941Z,16.64
2023-04-16T13:50:39.263Z,16.64
2023-04-16T13:51:47.484Z,16.64
2023-04-16T13:52:50.086Z,16.73
2023-04-16T13:53:53.990Z,16.81
2023-04-16T13:54:59.646Z,16.53
2023-04-16T13:56:04.413Z,16.45
2023-04-16T13:57:07.631Z,16.57
2023-04-16T13:58:11.779Z,16.71
2023-04-16T13:59:16.390Z,16.63
2023-04-16T14:00:20.976Z,16.59
2023-04-16T14:01:23.921Z,16.34